Latest METARs, TAFs and NOTAMs for MROC


---------------------------------------------------------------------------
	(OBSERVATIONS)
MROC 150400Z 30005KT CAVOK 21/17 A3000 NOSIG=
MROC 150300Z VRB04KT CAVOK 21/18 A3000 NOSIG=
MROC 150200Z 04005KT 340V130 CAVOK 21/18 A2999 NOSIG=
---------------------------------------------------------------------------
	(TERMINAL AREA FORECAST)
MROC 142300Z 1500/1524 11012KT 9999 FEW035
    TX29/1518Z TN18/1510Z
    TEMPO 1509/1518 11015G25KT=
---------------------------------------------------------------------------
	(NOTAMS)


MROC A1116/16 RNAV1 GNSS RWY 07 COCOS 7 PROCEDURE OC202 CORRECT
    ALT IS 6520FT. 23 JUN 00:00 2016 UNTIL PERM. CREATED: 21
    JUN 21:06 2016

MROC A1475/16 SID RNAV1 COCOS 7 GNSS RWY 07, LIB TRANSITION L2
    FM OC212 TO LIB VOR COURSE MAGNETIC CORRECT 277.28 DEG. REF
    AIRAC SUP A07/16. 11 AUG 20:05 2016 UNTIL PERM. CREATED:
    11 AUG 20:05 2016

MROC A1572/16 VMC PROCEDURE AIRSPACE C REF COSTA RICA AIP PAGE
    MROC AD 2.23 CNL. 25 AUG 01:54 2016 UNTIL PERM. CREATED:
    25 AUG 01:55 2016

MROC A1815/17 SEQUENCED FLG LGT RWY 07 U/S. 04 OCT 00:01 2017
    UNTIL 04 JAN 23:59 2018. CREATED: 02 OCT 22:25 2017

MROC A1967/17 COSTA RICA AIP AIRAC EFFECTIVE DATE 07 DEC 2017
    NIL. 07 DEC 00:00 2017 UNTIL 21 DEC 23:59 2017. CREATED:
    26 OCT 14:01 2017

MROC A1971/16 SID RNAV1 COCOS 7 GNSS RWY 07, LIB TRANSITION L
    CNL, REF COSTA RICA AIRAC SUP A07/16 ) DUPE. 23 OCT 15:13
    2016 UNTIL PERM. CREATED: 01 NOV 10:18 2016

MROC A1982/17 OBST ERECTED CRANE OF 70M HGT AT NW OF TWR CENTERED
    COORD 095953N 0841225W. 27 OCT 01:02 2017 UNTIL 17 DEC 23:59
    2017. CREATED: 27 OCT 01:04 2017

MROC A1991/17 FIC COCO RADIO FREQ 126.8MHZ U/S. 27 OCT 19:41
    2017 UNTIL 31 JAN 23:59 2018. CREATED: 27 OCT 19:41 2017

MROC A2192/17 OBST ERECTED CRANE 40M HGT AT ACFT STAND 17 CENTERED
    COORD 095949.53N 0841218.13W. 1200-2359, 23 NOV 16:28 2017
    UNTIL 28 FEB 23:59 2018. CREATED: 23 NOV 16:37 2017

MROC A2276/17 COCO CLEARANCE DELIVERY FREQ 121.3MHZ U/S. 30 NOV
    16:05 2017 UNTIL 28 FEB 23:59 2018. CREATED: 30 NOV 16:07
    2017

MROC A2369/17 AERIAL FIREWORKS WILL TAKE PLACE WI A CIRCLE OF
    RADIUS 0.05NM CENTRED ON 095826.66N 0841458.19W EXER CTN.
    SFC - 200FT AGL, DEC 10,17 AND 18 0300-0315, 10 DEC 03:00
    2017 UNTIL 18 DEC 03:15 2017. CREATED: 06 DEC 22:23 2017

MROC A2378/17 ACC COCO CTL FREQ 119.6MHZ AUX U/S. 07 DEC 13:48
    2017 UNTIL 15 DEC 23:59 2017. CREATED: 07 DEC 13:58 2017

MROC A2379/17 ACC COCO CTL FREQ 119.6MHZ OPR FM 5500FT TO 19000FT.
    07 DEC 13:56 2017 UNTIL 31 JAN 23:50 2018. CREATED: 07 DEC
    14:02 2017

MROC A2380/17 ACC COCO CTL FREQ 119.6MHZ OPR 60NM BTN RDL130
    AND RDL200 FM 7500FT BTN RDL200 AND RDL360 FM 5500FT TO 12000FT.
    07 DEC 14:02 2017 UNTIL 31 JAN 23:59 2018. CREATED: 07 DEC
    14:08 2017

MROC A2419/17 ACFT STAND NR17 MAIN APRON CLSD. 13 DEC 03:11 2017
    UNTIL 26 DEC 23:00 2017. CREATED: 13 DEC 03:19 2017

MROC A2420/17 MAIN APRON TO THE SW SIDE OF ACFT STAND NR17 CTN
    ADVISED DUE TO WIP. 13 DEC 03:20 2017 UNTIL 26 DEC 23:00
    2017. CREATED: 13 DEC 03:21 2017

MROC A2451/17 PAPI RWY 07 U/S. 14 DEC 23:00 2017 UNTIL 15 DEC
    23:59 2017. CREATED: 14 DEC 23:07 2017

MROC C0293/17 CORREDOR VISUAL LA PALMA SE CORRIGEN LAS COORDENADAS
    DEL PUNTO PIEDA :095848N 0840224W.REF.SUP C27/16. 18 JUL
    21:58 2017 UNTIL PERM. CREATED: 18 JUL 21:59 2017

MROC C0505/17 AFECTA EL ESPACIO AEREO COSTARRICENSE. VUELOS DOMESTICOS
    CERRAR PLAN DE VUELO VIA TELEFONICA AL 2232-6797. 15 NOV
    15:16 2017 UNTIL 31 JAN 23:59 2018. CREATED: 15 NOV 15:16
    2017

MROC C0569/17 AFECTA ESTAPACIO AEREO COSTARRICENSE. PRECAUCION
    POR VUELOS CON RPAS SOBRE ALREDEDORES DE AVENIDA 2, SAN JOSE,
    CON CENTRO EN LAS COORDENADAS 095545N 0840435W EN UN RADIO
    DE 500 METROS. SFC - 400FT AMSL, 16 DEC 21:00 2017 UNTIL
    17 DEC 06:00 2017. CREATED: 11 DEC 17:44 2017

MROC V0417/17 [US DOD PROCEDURAL NOTAM] INSTRUMENT APPROACH PROCEDURE
    NOT AUTHORIZED ILS/DME RWY 07 DOD FLIP VOL-1. 06 NOV 14:34
    2017 UNTIL 05 JAN 23:59 2018. CREATED: 06 NOV 14:34 2017

MROC V0418/17 [US DOD PROCEDURAL NOTAM] INSTRUMENT APPROACH PROCEDURE
    NOT AUTHORIZED VOR/DME RWY 07 DOD FLIP VOL-1. 06 NOV 14:35
    2017 UNTIL 05 JAN 23:59 2018. CREATED: 06 NOV 14:35 2017

---------------------------------------------------------------------------